VTUJ

Surin Airport

Thailand
TAF VTUJ 242300Z 2500/2524 25005KT 9000 SCT025 BKN100 TEMPO 2509/2512 VRB10KT 5000 RA SCT025 BKN100
Issued Valid From Valid To
Sep-24 @ 23:00 UTC
(2 hours ago)
Sep-25 @ 00:00 UTC
(an hour ago)
Sep-26 @ 00:00 UTC
(in 23 hours)
Sep-25 @ 00:00 to Sep-26 @ 00:00
TAF VTUJ 242300Z 2500/2524 25005KT 9000 SCT025 BKN100
Wind Visibility Clouds
250° at 5 knots 8,996 meters
  • Scattered at 2,500' AGL
  • Broken at 10,000' AGL
Temporary Sep-25 @ 09:00 to Sep-25 @ 12:00
TEMPO 2509/2512 VRB10KT 5000 RA SCT025 BKN100
Wind Visibility Clouds Conditions
Variable at 10 knots 5,005 meters
  • Scattered at 2,500' AGL
  • Broken at 10,000' AGL
  • Rain
TAF VTUJ 242300Z 2500/2524 25005KT 9000 SCT025 BKN100 TEMPO 2509/2512 VRB10KT 5000 RA SCT025 BKN100
Issued Sep-24 @ 23:00 UTC
(2 hours ago)
Valid From Sep-25 @ 00:00 UTC
(an hour ago)
Valid To Sep-26 @ 00:00 UTC
(in 23 hours)
Sep-25 @ 00:00 - Sep-26 @ 00:00
Wind Visibility
250° at 5 knots 8,996 meters
Clouds
  • Scattered at 2,500' AGL
  • Broken at 10,000' AGL
Temporary Sep-25 @ 09:00 - Sep-25 @ 12:00
Wind Visibility
Variable at 10 knots 5,005 meters
Clouds
  • Scattered at 2,500' AGL
  • Broken at 10,000' AGL
Conditions
  • Rain